Flight Track Log - Related Links

Times and Time Zones

All times are in EDT time to prevent confusion due to time zone crossing. See the EJA102 flight status page for this flight to view local times or setup timezone preferences in your user account.

Time Position Orientation Groundspeed Altitude Reporting Facility
EDT Latitude Longitude Course Direction KTS MPH feet Rate Location/Type
Sat 07:27:21 AM 40.2667 -74.8333 217° Southwest 123 142 1,000  Level Philadelphia TRACON
Sat 07:28:57 AM 40.2000 -74.9000 217° Southwest 213 245 4,300 2,200 Climbing Philadelphia TRACON
Sat 07:29:51 AM 40.1667 -74.9500 229° Southwest 230 265 6,500 1,368 Climbing Philadelphia TRACON
Sat 07:30:51 AM 40.1167 -75.0167 226° Southwest 261 300 6,900 581 Climbing Philadelphia TRACON
Sat 07:32:57 AM 40.0556 -75.1939 246° West 250 288 8,300 903 Climbing New York Center
Sat 07:33:57 AM 40.0317 -75.2792 250° West 250 288 9,700 864 Climbing New York Center
Sat 07:34:55 AM 40.0072 -75.3672 250° West 256 295 10,000 150 Climbing New York Center
Sat 07:35:57 AM 39.9808 -75.4547 249° West 266 306 10,000 344 Level New York Center
Sat 07:36:57 AM 39.9542 -75.5478 250° West 266 306 10,700 1,150 Climbing New York Center
Sat 07:37:57 AM 39.9275 -75.6406 249° West 271 312 12,300 1,600 Climbing New York Center
Sat 07:38:57 AM 39.9214 -75.7350 265° West 284 327 13,900 850 Climbing New York Center
Sat 07:39:57 AM 39.9267 -75.8572 273° West 312 359 14,000 50 Climbing New York Center
Sat 07:40:57 AM 39.9344 -75.9661 275° West 333 383 14,000  Level New York Center
Sat 07:41:58 AM 39.9400 -76.0750 274° West 317 365 14,000  Level New York Center
Sat 07:42:58 AM 39.9472 -76.1892 275° West 302 348 14,000  Level New York Center
Sat 07:43:58 AM 39.9506 -76.2978 272° West 302 348 14,000  Level New York Center
Sat 07:44:56 AM 39.9558 -76.4067 274° West 302 348 14,000  Level New York Center
Sat 07:45:57 AM 39.9594 -76.5044 273° West 302 348 14,000  Level New York Center
Sat 07:48:19 AM 39.9000 -76.7500 253° West 307 353 14,000 -119 Level Potomac TRACON
Sat 07:49:19 AM 39.8500 -76.8500 237° Southwest 322 371 13,600 -1,250 Descending Potomac TRACON
Sat 07:50:19 AM 39.8167 -76.9500 247° West 320 368 11,500 -1,842 Descending Potomac TRACON
Sat 07:51:13 AM 39.7833 -77.0333 243° Southwest 319 367 10,100 -789 Descending Potomac TRACON
Sat 07:52:13 AM 39.7333 -77.1167 232° Southwest 292 336 10,000 -50 Descending Potomac TRACON
Sat 07:53:13 AM 39.7000 -77.2000 243° Southwest 272 313 10,000 -100 Level Potomac TRACON
Sat 07:54:13 AM 39.6500 -77.2833 232° Southwest 269 310 9,800 -1,450 Descending Potomac TRACON
Sat 07:55:13 AM 39.6000 -77.3500 226° Southwest 265 305 7,100 -1,400 Descending Potomac TRACON
Sat 07:56:13 AM 39.5167 -77.3500 180° South 283 326 7,000 -50 Descending Potomac TRACON
Sat 07:57:13 AM 39.4333 -77.3667 189° South 277 319 7,000 -167 Level Potomac TRACON
Sat 07:58:01 AM 39.3833 -77.3667 180° South 280 322 6,700 -833 Descending Potomac TRACON
Sat 07:59:01 AM 39.3000 -77.3667 180° South 283 326 5,500 -1,050 Descending Potomac TRACON
Sat 08:00:01 AM 39.2167 -77.3667 180° South 280 322 4,600 -789 Descending Potomac TRACON
Sat 08:00:55 AM 39.1500 -77.3667 180° South 283 326 4,000 -333 Descending Potomac TRACON
Sat 08:01:49 AM 39.0833 -77.3667 180° South 276 318 4,000 -261 Level Potomac TRACON
Sat 08:02:50 AM 39.0000 -77.3667 180° South 274 315 3,500 -522 Descending Potomac TRACON
Sat 08:03:44 AM 38.9333 -77.3667 180° South 265 305 3,000 -278 Descending Potomac TRACON
Sat 08:04:38 AM 38.8833 -77.3667 180° South 255 293 3,000 -550 Level Potomac TRACON
Sat 08:05:44 AM 38.8500 -77.4167 229° Southwest 184 212 1,900 -1,000 Descending Potomac TRACON
Sat 08:06:32 AM 38.8833 -77.4333 339° North 156 180 1,100 -1,000 Descending Potomac TRACON
Sat 08:08:00 AM 38.9333 -77.4500 349° North  Level FlightAware Approximate
Sat 08:15:00 AM 38.9474 -77.4599 349° North  Level Estimated

Login

Don't have an account? Register now (free) for customized features, flight alerts, and more!